createdAt,value
2019-03-09T00:00:32.650Z,95472.08
2019-03-09T00:02:59.303Z,95464.91
2019-03-09T00:05:25.945Z,95467.42
2019-03-09T00:07:52.593Z,95465.03
2019-03-09T00:10:19.251Z,95461.41
2019-03-09T00:12:45.897Z,95458.25
2019-03-09T00:15:12.537Z,95454.59
2019-03-09T00:17:39.200Z,95460.77
2019-03-09T00:20:05.840Z,95460.52
2019-03-09T00:22:32.521Z,95452.81
2019-03-09T00:24:59.157Z,95459.63
2019-03-09T00:27:29.848Z,95460.28
2019-03-09T00:29:52.446Z,95450.80
2019-03-09T00:32:19.133Z,95451.08
2019-03-09T00:34:45.773Z,95454.98
2019-03-09T00:37:12.413Z,95447.30
2019-03-09T00:39:39.098Z,95446.77
2019-03-09T00:42:05.835Z,95446.16
2019-03-09T00:44:32.468Z,95460.40
2019-03-09T00:46:59.113Z,95457.50
2019-03-09T00:49:25.775Z,95460.42
2019-03-09T00:51:52.417Z,95455.11
2019-03-09T00:54:19.064Z,95456.63
2019-03-09T00:56:45.709Z,95447.44
2019-03-09T00:59:12.404Z,95453.73
2019-03-09T01:01:39.043Z,95447.56
2019-03-09T01:04:05.699Z,95446.56
2019-03-09T01:06:32.338Z,95446.19
2019-03-09T01:08:58.983Z,95441.88
2019-03-09T01:11:25.621Z,95441.41
2019-03-09T01:13:52.275Z,95446.55
2019-03-09T01:16:18.926Z,95444.41
2019-03-09T01:18:45.561Z,95447.81
2019-03-09T01:21:12.252Z,95447.93
2019-03-09T01:23:38.899Z,95438.75
2019-03-09T01:26:05.535Z,95448.95
2019-03-09T01:28:32.191Z,95447.81
2019-03-09T01:30:58.841Z,95449.70
2019-03-09T01:33:25.496Z,95453.98
2019-03-09T01:35:52.141Z,95441.91
2019-03-09T01:38:18.788Z,95455.38
2019-03-09T01:40:45.724Z,95459.28
2019-03-09T01:43:12.376Z,95462.58
2019-03-09T01:45:39.020Z,95458.30
2019-03-09T01:48:05.680Z,95456.91
2019-03-09T01:50:32.452Z,95444.80
2019-03-09T01:52:59.083Z,95458.17
2019-03-09T01:55:25.772Z,95449.48
2019-03-09T01:57:52.419Z,95456.02
2019-03-09T02:00:21.275Z,95455.91
2019-03-09T02:02:48.091Z,95459.45
2019-03-09T02:05:14.757Z,95460.69
2019-03-09T02:07:41.401Z,95475.32
2019-03-09T02:10:08.074Z,95465.48
2019-03-09T02:12:34.723Z,95466.00
2019-03-09T02:15:01.366Z,95463.11
2019-03-09T02:17:28.024Z,95468.78
2019-03-09T02:19:54.677Z,95469.90
2019-03-09T02:22:21.329Z,95464.88
2019-03-09T02:24:47.977Z,95481.25
2019-03-09T02:27:14.629Z,95474.20
2019-03-09T02:29:41.312Z,95471.80
2019-03-09T02:32:07.956Z,95466.64
2019-03-09T02:34:34.602Z,95470.30
2019-03-09T02:37:01.276Z,95465.37
2019-03-09T02:39:27.929Z,95467.53
2019-03-09T02:41:54.567Z,95467.27
2019-03-09T02:44:21.224Z,95462.36
2019-03-09T02:46:47.866Z,95465.38
2019-03-09T02:49:14.594Z,95465.73
2019-03-09T02:51:41.234Z,95462.86
2019-03-09T02:54:07.944Z,95475.45
2019-03-09T02:56:34.574Z,95475.34
2019-03-09T02:59:01.215Z,95476.98
2019-03-09T03:01:27.848Z,95487.94
2019-03-09T03:03:54.508Z,95482.51
2019-03-09T03:06:21.197Z,95484.55
2019-03-09T03:08:47.834Z,95486.67
2019-03-09T03:11:14.528Z,95491.47
2019-03-09T03:13:41.174Z,95497.63
2019-03-09T03:16:07.814Z,95499.28
2019-03-09T03:18:34.505Z,95499.91
2019-03-09T03:21:01.149Z,95508.61
2019-03-09T03:23:27.793Z,95510.48
2019-03-09T03:25:54.450Z,95515.78
2019-03-09T03:28:21.119Z,95513.14
2019-03-09T03:30:47.781Z,95510.86
2019-03-09T03:33:14.411Z,95508.99
2019-03-09T03:35:41.087Z,95517.17
2019-03-09T03:38:07.724Z,95513.13
2019-03-09T03:40:34.357Z,95517.29
2019-03-09T03:43:01.021Z,95517.40
2019-03-09T03:45:27.670Z,95519.30
2019-03-09T03:47:54.358Z,95513.76
2019-03-09T03:50:21.035Z,95521.69
2019-03-09T03:52:47.683Z,95526.34
2019-03-09T03:55:14.318Z,95522.45
2019-03-09T03:57:40.960Z,95523.59
2019-03-09T04:00:07.623Z,95519.17
2019-03-09T04:02:34.356Z,95516.28
2019-03-09T04:05:01.013Z,95518.53
2019-03-09T04:07:27.659Z,95516.02
2019-03-09T04:09:54.350Z,95515.88
2019-03-09T04:12:20.991Z,95510.86
2019-03-09T04:14:47.728Z,95519.94
2019-03-09T04:17:14.369Z,95521.19
2019-03-09T04:19:41.019Z,95527.84
2019-03-09T04:22:07.694Z,95529.88
2019-03-09T04:24:34.338Z,95540.31
2019-03-09T04:27:00.983Z,95540.69
2019-03-09T04:29:27.632Z,95532.76
2019-03-09T04:31:54.268Z,95544.05
2019-03-09T04:34:20.919Z,95534.36
2019-03-09T04:36:47.562Z,95536.40
2019-03-09T04:39:14.205Z,95536.53
2019-03-09T04:41:41.010Z,95543.30
2019-03-09T04:44:07.639Z,95553.02
2019-03-09T04:46:34.281Z,95553.78
2019-03-09T04:49:00.912Z,95556.80
2019-03-09T04:51:27.569Z,95553.62
2019-03-09T04:53:54.228Z,95564.87
2019-03-09T04:56:20.869Z,95572.70
2019-03-09T04:58:47.539Z,95568.86
2019-03-09T05:01:14.223Z,95563.56
2019-03-09T05:03:40.855Z,95564.32
2019-03-09T05:06:10.419Z,95562.06
2019-03-09T05:08:37.055Z,95565.95
2019-03-09T05:11:03.710Z,95564.45
2019-03-09T05:13:30.660Z,95570.62
2019-03-09T05:15:57.310Z,95575.27
2019-03-09T05:18:23.985Z,95581.05
2019-03-09T05:20:50.622Z,95581.84
2019-03-09T05:23:17.295Z,95588.63
2019-03-09T05:25:43.941Z,95587.55
2019-03-09T05:28:10.599Z,95593.94
2019-03-09T05:30:37.242Z,95601.86
2019-03-09T05:33:03.929Z,95607.41
2019-03-09T05:35:30.583Z,95614.38
2019-03-09T05:37:57.232Z,95609.73
2019-03-09T05:40:23.876Z,95610.11
2019-03-09T05:42:50.563Z,95605.58
2019-03-09T05:45:17.200Z,95615.14
2019-03-09T05:47:43.882Z,95610.25
2019-03-09T05:50:10.529Z,95609.59
2019-03-09T05:52:37.173Z,95607.97
2019-03-09T05:55:03.857Z,95615.02
2019-03-09T05:57:30.517Z,95614.75
2019-03-09T05:59:57.159Z,95618.08
2019-03-09T06:02:23.814Z,95618.08
2019-03-09T06:04:50.455Z,95625.64
2019-03-09T06:07:17.151Z,95611.77
2019-03-09T06:09:43.788Z,95621.58
2019-03-09T06:12:10.427Z,95624.59
2019-03-09T06:14:37.100Z,95625.49
2019-03-09T06:17:03.745Z,95623.00
2019-03-09T06:19:30.397Z,95623.10
2019-03-09T06:21:57.041Z,95624.00
2019-03-09T06:24:23.688Z,95628.27
2019-03-09T06:26:50.344Z,95629.55
2019-03-09T06:29:17.042Z,95636.13
2019-03-09T06:31:43.679Z,95635.34
2019-03-09T06:34:10.337Z,95636.23
2019-03-09T06:36:36.998Z,95636.89
2019-03-09T06:39:06.396Z,95637.52
2019-03-09T06:41:33.034Z,95635.23
2019-03-09T06:43:59.719Z,95637.91
2019-03-09T06:46:26.365Z,95635.92
2019-03-09T06:48:53.010Z,95631.63
2019-03-09T06:51:19.688Z,95629.12
2019-03-09T06:53:46.364Z,95639.45
2019-03-09T06:56:13.011Z,95640.88
2019-03-09T06:58:39.690Z,95643.77
2019-03-09T07:01:06.339Z,95638.98
2019-03-09T07:03:32.993Z,95640.39
2019-03-09T07:05:59.636Z,95626.54
2019-03-09T07:08:26.294Z,95637.38
2019-03-09T07:10:52.931Z,95640.03
2019-03-09T07:13:19.586Z,95649.61
2019-03-09T07:15:46.269Z,95644.45
2019-03-09T07:18:12.906Z,95651.00
2019-03-09T07:20:39.706Z,95647.98
2019-03-09T07:23:06.336Z,95646.33
2019-03-09T07:25:32.973Z,95648.25
2019-03-09T07:27:59.623Z,95649.87
2019-03-09T07:30:26.274Z,95652.15
2019-03-09T07:32:52.952Z,95654.78
2019-03-09T07:35:19.592Z,95652.27
2019-03-09T07:37:46.264Z,95642.55
2019-03-09T07:40:12.914Z,95646.83
2019-03-09T07:42:39.558Z,95646.83
2019-03-09T07:45:06.199Z,95641.92
2019-03-09T07:47:32.859Z,95640.90
2019-03-09T07:49:59.567Z,95634.81
2019-03-09T07:52:26.208Z,95629.63
2019-03-09T07:54:52.844Z,95636.84
2019-03-09T07:57:19.489Z,95638.37
2019-03-09T07:59:46.127Z,95637.83
2019-03-09T08:02:12.899Z,95636.18
2019-03-09T08:04:39.582Z,95639.98
2019-03-09T08:07:06.219Z,95644.41
2019-03-09T08:09:32.874Z,95637.20
2019-03-09T08:11:59.549Z,95634.95
2019-03-09T08:14:26.191Z,95631.78
2019-03-09T08:16:54.342Z,95629.62
2019-03-09T08:19:19.509Z,95626.84
2019-03-09T08:21:46.465Z,95623.42
2019-03-09T08:24:13.067Z,95619.14
2019-03-09T08:26:39.705Z,95620.63
2019-03-09T08:29:06.353Z,95609.40
2019-03-09T08:31:32.995Z,95615.58
2019-03-09T08:33:59.651Z,95617.10
2019-03-09T08:36:26.281Z,95623.67
2019-03-09T08:38:52.970Z,95621.50
2019-03-09T08:41:19.628Z,95614.08
2019-03-09T08:43:46.278Z,95610.51
2019-03-09T08:46:12.910Z,95607.25
2019-03-09T08:48:39.556Z,95604.57
2019-03-09T08:51:06.205Z,95602.44
2019-03-09T08:53:32.886Z,95600.27
2019-03-09T08:55:59.527Z,95595.95
2019-03-09T08:58:26.265Z,95591.78
2019-03-09T09:00:55.468Z,95591.53
2019-03-09T09:03:22.111Z,95585.72
2019-03-09T09:05:48.833Z,95586.59
2019-03-09T09:08:15.457Z,95592.80
2019-03-09T09:10:42.195Z,95590.38
2019-03-09T09:13:08.856Z,95583.94
2019-03-09T09:15:35.546Z,95589.73
2019-03-09T09:18:02.232Z,95583.28
2019-03-09T09:20:28.913Z,95581.27
2019-03-09T09:22:55.556Z,95583.03
2019-03-09T09:25:22.207Z,95574.70
2019-03-09T09:27:48.863Z,95576.73
2019-03-09T09:30:15.524Z,95571.02
2019-03-09T09:32:42.194Z,95572.37
2019-03-09T09:35:08.841Z,95566.81
2019-03-09T09:37:35.481Z,95570.86
2019-03-09T09:40:02.118Z,95565.70
2019-03-09T09:42:28.767Z,95564.41
2019-03-09T09:44:55.412Z,95561.78
2019-03-09T09:47:22.055Z,95559.63
2019-03-09T09:49:48.709Z,95554.45
2019-03-09T09:52:15.344Z,95553.46
2019-03-09T09:54:41.972Z,95554.20
2019-03-09T09:57:08.661Z,95552.68
2019-03-09T09:59:35.365Z,95551.29
2019-03-09T10:02:02.014Z,95547.75
2019-03-09T10:04:28.658Z,95540.93
2019-03-09T10:06:55.347Z,95540.78
2019-03-09T10:09:21.985Z,95537.86
2019-03-09T10:11:48.669Z,95536.36
2019-03-09T10:14:15.321Z,95533.58
2019-03-09T10:16:41.957Z,95533.94
2019-03-09T10:19:08.644Z,95532.80
2019-03-09T10:21:35.292Z,95523.07
2019-03-09T10:24:01.947Z,95521.36
2019-03-09T10:26:28.578Z,95521.26
2019-03-09T10:28:55.233Z,95512.79
2019-03-09T10:33:48.148Z,95510.64
2019-03-09T10:36:14.837Z,95511.15
2019-03-09T10:38:41.486Z,95501.41
2019-03-09T10:41:08.137Z,95495.58
2019-03-09T10:43:34.778Z,95498.59
2019-03-09T10:46:01.463Z,95498.56
2019-03-09T10:48:28.142Z,95494.29
2019-03-09T10:50:54.790Z,95487.33
2019-03-09T10:53:21.448Z,95484.53
2019-03-09T10:55:48.080Z,95476.84
2019-03-09T10:58:14.767Z,95475.94
2019-03-09T11:00:41.559Z,95465.92
2019-03-09T11:03:08.204Z,95464.30
2019-03-09T11:05:34.861Z,95454.60
2019-03-09T11:08:01.489Z,95449.64
2019-03-09T11:10:28.128Z,95448.78
2019-03-09T11:12:54.768Z,95448.16
2019-03-09T11:15:21.430Z,95443.45
2019-03-09T11:17:48.066Z,95440.54
2019-03-09T11:20:14.757Z,95435.89
2019-03-09T11:22:41.473Z,95436.50
2019-03-09T11:25:08.117Z,95431.95
2019-03-09T11:27:34.760Z,95426.64
2019-03-09T11:30:01.414Z,95426.23
2019-03-09T11:32:28.055Z,95418.02
2019-03-09T11:34:54.831Z,95407.80
2019-03-09T11:37:21.475Z,95389.98
2019-03-09T11:39:48.165Z,95401.20
2019-03-09T11:42:14.803Z,95396.64
2019-03-09T11:44:41.612Z,95391.11
2019-03-09T11:47:08.253Z,95386.16
2019-03-09T11:49:34.898Z,95376.84
2019-03-09T11:52:01.586Z,95378.32
2019-03-09T11:54:28.268Z,95370.26
2019-03-09T11:56:54.950Z,95372.38
2019-03-09T11:59:21.633Z,95365.30
2019-03-09T12:01:48.281Z,95356.06
2019-03-09T12:04:14.970Z,95354.92
2019-03-09T12:06:41.617Z,95353.38
2019-03-09T12:09:08.264Z,95343.52
2019-03-09T12:11:34.902Z,95344.66
2019-03-09T12:14:01.626Z,95343.73
2019-03-09T12:16:28.278Z,95337.02
2019-03-09T12:18:54.963Z,95329.97
2019-03-09T12:21:21.609Z,95327.05
2019-03-09T12:23:48.258Z,95325.07
2019-03-09T12:26:14.913Z,95317.11
2019-03-09T12:28:41.584Z,95317.02
2019-03-09T12:31:08.226Z,95311.33
2019-03-09T12:33:34.975Z,95314.66
2019-03-09T12:36:01.622Z,95310.36
2019-03-09T12:38:28.311Z,95311.82
2019-03-09T12:40:54.999Z,95309.00
2019-03-09T12:43:21.632Z,95305.22
2019-03-09T12:45:48.276Z,95306.48
2019-03-09T12:48:14.928Z,95306.48
2019-03-09T12:50:41.582Z,95301.67
2019-03-09T12:53:08.263Z,95300.03
2019-03-09T12:55:34.902Z,95306.38
2019-03-09T12:58:01.558Z,95298.80
2019-03-09T13:00:28.248Z,95301.04
2019-03-09T13:02:54.892Z,95297.13
2019-03-09T13:05:21.594Z,95288.94
2019-03-09T13:07:48.320Z,95291.05
2019-03-09T13:10:14.959Z,95272.29
2019-03-09T13:12:41.628Z,95300.41
2019-03-09T13:15:08.316Z,95305.47
2019-03-09T13:17:34.963Z,95318.99
2019-03-09T13:20:01.605Z,95304.75
2019-03-09T13:22:28.246Z,95312.16
2019-03-09T13:24:54.944Z,95300.45
2019-03-09T13:27:21.624Z,95295.77
2019-03-09T13:29:48.274Z,95284.64
2019-03-09T13:32:14.912Z,95285.78
2019-03-09T13:34:41.596Z,95276.42
2019-03-09T13:37:08.285Z,95274.36
2019-03-09T13:39:34.928Z,95270.19
2019-03-09T13:42:01.563Z,95261.97
2019-03-09T13:44:28.213Z,95260.08
2019-03-09T13:46:54.849Z,95253.77
2019-03-09T13:49:21.537Z,95253.13
2019-03-09T13:51:48.195Z,95249.33
2019-03-09T13:54:14.890Z,95242.25
2019-03-09T13:56:41.538Z,95238.84
2019-03-09T13:59:08.234Z,95232.64
2019-03-09T14:01:34.870Z,95232.86
2019-03-09T14:04:01.524Z,95231.08
2019-03-09T14:06:28.181Z,95231.46
2019-03-09T14:08:54.913Z,95230.55
2019-03-09T14:11:21.545Z,95228.10
2019-03-09T14:13:48.225Z,95228.81
2019-03-09T14:16:14.872Z,95226.70
2019-03-09T14:18:41.528Z,95221.84
2019-03-09T14:21:08.208Z,95215.83
2019-03-09T14:23:34.845Z,95220.53
2019-03-09T14:26:01.485Z,95213.30
2019-03-09T14:28:28.148Z,95206.13
2019-03-09T14:30:54.908Z,95205.23
2019-03-09T14:33:21.593Z,95193.95
2019-03-09T14:35:48.236Z,95201.78
2019-03-09T14:38:14.886Z,95191.92
2019-03-09T14:40:41.540Z,95189.27
2019-03-09T14:43:08.222Z,95188.12
2019-03-09T14:45:34.938Z,95190.86
2019-03-09T14:48:01.628Z,95196.59
2019-03-09T14:50:28.259Z,95191.55
2019-03-09T14:52:54.894Z,95180.83
2019-03-09T14:55:24.359Z,95187.08
2019-03-09T14:57:51.017Z,95184.30
2019-03-09T15:00:17.670Z,95189.61
2019-03-09T15:02:44.324Z,95179.88
2019-03-09T15:05:10.982Z,95170.27
2019-03-09T15:07:37.686Z,95171.79
2019-03-09T15:10:04.336Z,95171.06
2019-03-09T15:12:30.987Z,95170.82
2019-03-09T15:14:57.666Z,95166.81
2019-03-09T15:17:24.316Z,95167.41
2019-03-09T15:19:50.954Z,95165.97
2019-03-09T15:22:17.612Z,95166.77
2019-03-09T15:24:44.264Z,95161.84
2019-03-09T15:27:10.919Z,95162.59
2019-03-09T15:29:37.601Z,95158.19
2019-03-09T15:32:04.245Z,95158.84
2019-03-09T15:34:30.901Z,95161.63
2019-03-09T15:36:57.544Z,95154.77
2019-03-09T15:39:24.192Z,95164.03
2019-03-09T15:41:50.846Z,95157.47
2019-03-09T15:44:17.491Z,95160.49
2019-03-09T15:46:44.177Z,95157.97
2019-03-09T15:49:10.817Z,95164.42
2019-03-09T15:51:37.474Z,95163.73
2019-03-09T15:54:04.119Z,95167.58
2019-03-09T15:56:30.808Z,95171.04
2019-03-09T15:58:57.457Z,95175.30
2019-03-09T16:01:24.091Z,95172.30
2019-03-09T16:03:50.750Z,95172.73
2019-03-09T16:06:19.406Z,95175.89
2019-03-09T16:08:44.049Z,95175.04
2019-03-09T16:11:10.704Z,95177.06
2019-03-09T16:13:37.354Z,95179.47
2019-03-09T16:16:04.002Z,95181.75
2019-03-09T16:18:32.523Z,95181.38
2019-03-09T16:20:57.288Z,95187.70
2019-03-09T16:23:23.945Z,95187.23
2019-03-09T16:25:50.635Z,95188.38
2019-03-09T16:28:17.294Z,95193.56
2019-03-09T16:30:43.936Z,95196.75
2019-03-09T16:33:10.588Z,95195.62
2019-03-09T16:35:37.241Z,95195.75
2019-03-09T16:38:03.902Z,95195.12
2019-03-09T16:40:39.802Z,95196.01
2019-03-09T16:42:57.176Z,95197.05
2019-03-09T16:45:23.816Z,95200.94
2019-03-09T16:47:50.448Z,95207.30
2019-03-09T16:50:17.156Z,95207.34
2019-03-09T16:52:43.799Z,95210.36
2019-03-09T16:55:10.446Z,95205.86
2019-03-09T16:57:37.084Z,95206.48
2019-03-09T17:00:03.727Z,95207.76
2019-03-09T17:02:30.365Z,95205.91
2019-03-09T17:04:59.215Z,95206.91
2019-03-09T17:07:23.654Z,95218.74
2019-03-09T17:09:50.307Z,95218.16
2019-03-09T17:12:16.957Z,95220.72
2019-03-09T17:14:43.601Z,95223.38
2019-03-09T17:17:10.250Z,95220.97
2019-03-09T17:19:36.890Z,95227.16
2019-03-09T17:22:03.547Z,95225.30
2019-03-09T17:24:30.183Z,95230.45
2019-03-09T17:26:56.833Z,95230.99
2019-03-09T17:29:23.484Z,95235.41
2019-03-09T17:31:50.630Z,95223.20
2019-03-09T17:34:17.265Z,95230.40
2019-03-09T17:36:43.920Z,95225.59
2019-03-09T17:39:10.567Z,95228.00
2019-03-09T17:41:37.294Z,95231.69
2019-03-09T17:44:03.878Z,95238.27
2019-03-09T17:46:30.534Z,95249.03
2019-03-09T17:48:57.176Z,95262.18
2019-03-09T17:51:23.826Z,95275.19
2019-03-09T17:53:50.486Z,95292.23
2019-03-09T17:56:17.125Z,95305.00
2019-03-09T17:58:43.775Z,95301.47
2019-03-09T18:01:10.416Z,95310.34
2019-03-09T18:03:37.061Z,95314.53
2019-03-09T18:06:03.708Z,95323.25
2019-03-09T18:08:30.348Z,95325.78
2019-03-09T18:10:57.001Z,95328.68
2019-03-09T18:13:23.642Z,95333.11
2019-03-09T18:15:50.287Z,95324.29
2019-03-09T18:18:17.858Z,95325.93
2019-03-09T18:20:43.590Z,95328.99
2019-03-09T18:23:10.224Z,95329.59
2019-03-09T18:25:36.879Z,95322.05
2019-03-09T18:28:03.530Z,95331.14
2019-03-09T18:30:30.173Z,95322.58
2019-03-09T18:32:56.815Z,95327.00
2019-03-09T18:35:23.483Z,95319.92
2019-03-09T18:37:50.140Z,95322.58
2019-03-09T18:40:16.770Z,95324.50
2019-03-09T18:42:43.402Z,95313.55
2019-03-09T18:45:10.045Z,95308.88
2019-03-09T18:47:36.685Z,95312.41
2019-03-09T18:50:03.347Z,95322.63
2019-03-09T18:52:29.996Z,95322.50
2019-03-09T18:54:56.645Z,95320.86
2019-03-09T18:57:23.337Z,95325.31
2019-03-09T18:59:49.979Z,95325.34
2019-03-09T19:02:16.624Z,95320.29
2019-03-09T19:04:43.267Z,95321.91
2019-03-09T19:07:09.922Z,95323.19
2019-03-09T19:09:36.559Z,95323.83
2019-03-09T19:12:03.196Z,95325.34
2019-03-09T19:14:29.848Z,95325.97
2019-03-09T19:16:56.494Z,95321.05
2019-03-09T19:19:23.145Z,95328.11
2019-03-09T19:21:49.792Z,95331.77
2019-03-09T19:24:16.431Z,95327.86
2019-03-09T19:26:43.081Z,95331.17
2019-03-09T19:29:09.741Z,95328.52
2019-03-09T19:31:36.554Z,95332.58
2019-03-09T19:34:03.204Z,95329.05
2019-03-09T19:36:29.849Z,95332.33
2019-03-09T19:38:56.503Z,95328.94
2019-03-09T19:41:23.153Z,95330.98
2019-03-09T19:43:49.791Z,95333.79
2019-03-09T19:46:16.443Z,95331.13
2019-03-09T19:48:43.119Z,95328.59
2019-03-09T19:51:09.750Z,95333.89
2019-03-09T19:53:36.405Z,95339.61
2019-03-09T19:56:03.056Z,95341.36
2019-03-09T19:58:29.718Z,95336.71
2019-03-09T20:00:56.357Z,95334.06
2019-03-09T20:03:23.013Z,95332.29
2019-03-09T20:05:49.650Z,95327.90
2019-03-09T20:08:16.341Z,95330.70
2019-03-09T20:10:42.979Z,95320.60
2019-03-09T20:13:09.617Z,95321.37
2019-03-09T20:15:36.274Z,95320.37
2019-03-09T20:18:02.909Z,95320.37
2019-03-09T20:20:29.558Z,95313.07
2019-03-09T20:22:56.197Z,95313.83
2019-03-09T20:25:22.837Z,95311.03
2019-03-09T20:27:49.491Z,95307.02
2019-03-09T20:30:16.128Z,95310.72
2019-03-09T20:32:42.766Z,95315.73
2019-03-09T20:35:09.417Z,95318.66
2019-03-09T20:37:36.113Z,95322.84
2019-03-09T20:40:02.752Z,95315.67
2019-03-09T20:42:29.415Z,95322.87
2019-03-09T20:44:56.186Z,95317.97
2019-03-09T20:47:22.858Z,95317.08
2019-03-09T20:49:49.485Z,95305.73
2019-03-09T20:52:16.135Z,95307.50
2019-03-09T20:54:42.811Z,95307.98
2019-03-09T20:57:09.466Z,95309.89
2019-03-09T20:59:36.111Z,95303.20
2019-03-09T21:02:02.751Z,95301.31
2019-03-09T21:04:29.398Z,95305.37
2019-03-09T21:06:56.050Z,95298.33
2019-03-09T21:09:22.679Z,95296.54
2019-03-09T21:11:49.326Z,95291.61
2019-03-09T21:14:15.956Z,95293.26
2019-03-09T21:16:42.614Z,95287.60
2019-03-09T21:19:09.240Z,95291.78
2019-03-09T21:21:35.899Z,95294.30
2019-03-09T21:24:02.543Z,95286.62
2019-03-09T21:26:29.201Z,95294.08
2019-03-09T21:28:55.845Z,95285.24
2019-03-09T21:31:22.489Z,95283.09
2019-03-09T21:33:49.164Z,95289.78
2019-03-09T21:36:15.803Z,95287.77
2019-03-09T21:38:42.489Z,95284.99
2019-03-09T21:41:09.129Z,95286.17
2019-03-09T21:43:35.782Z,95286.17
2019-03-09T21:46:02.435Z,95283.50
2019-03-09T21:48:29.093Z,95275.83
2019-03-09T21:50:55.724Z,95275.30
2019-03-09T21:53:22.367Z,95278.09
2019-03-09T21:55:49.004Z,95277.72
2019-03-09T21:58:15.710Z,95274.70
2019-03-09T22:00:42.387Z,95277.31
2019-03-09T22:03:09.025Z,95280.40
2019-03-09T22:05:35.665Z,95281.30
2019-03-09T22:08:02.308Z,95280.03
2019-03-09T22:10:28.977Z,95270.98
2019-03-09T22:12:55.643Z,95274.38
2019-03-09T22:15:22.396Z,95271.88
2019-03-09T22:17:49.040Z,95271.88
2019-03-09T22:20:15.698Z,95274.00
2019-03-09T22:22:42.340Z,95274.50
2019-03-09T22:25:08.992Z,95267.08
2019-03-09T22:27:35.690Z,95272.86
2019-03-09T22:30:02.340Z,95271.76
2019-03-09T22:32:29.021Z,95267.47
2019-03-09T22:34:55.662Z,95263.18
2019-03-09T22:37:22.359Z,95264.73
2019-03-09T22:39:48.992Z,95266.97
2019-03-09T22:42:15.635Z,95259.95
2019-03-09T22:44:42.310Z,95270.02
2019-03-09T22:47:11.828Z,95270.11
2019-03-09T22:49:38.225Z,95270.88
2019-03-09T22:52:02.282Z,95270.50
2019-03-09T22:54:28.924Z,95272.02
2019-03-09T22:56:55.574Z,95270.89
2019-03-09T22:59:22.224Z,95264.48
2019-03-09T23:01:48.882Z,95259.09
2019-03-09T23:04:15.568Z,95268.53
2019-03-09T23:06:42.217Z,95268.63
2019-03-09T23:09:08.879Z,95275.97
2019-03-09T23:11:35.516Z,95268.53
2019-03-09T23:14:02.176Z,95283.16
2019-03-09T23:16:28.835Z,95277.00
2019-03-09T23:18:55.520Z,95284.17
2019-03-09T23:21:22.161Z,95290.84
2019-03-09T23:23:48.805Z,95292.88
2019-03-09T23:26:15.463Z,95275.98
2019-03-09T23:28:42.125Z,95269.95
2019-03-09T23:31:08.767Z,95270.70
2019-03-09T23:33:35.457Z,95263.88
2019-03-09T23:36:02.106Z,95275.10
2019-03-09T23:38:28.802Z,95275.71
2019-03-09T23:40:55.488Z,95276.60
2019-03-09T23:43:22.152Z,95272.83
2019-03-09T23:45:48.798Z,95279.39
2019-03-09T23:48:15.492Z,95269.33
2019-03-09T23:50:42.188Z,95266.90
2019-03-09T23:53:08.844Z,95270.31
2019-03-09T23:55:35.551Z,95269.20
2019-03-09T23:58:02.194Z,95268.44
